sensor_id;sensor_type;location;lat;lon;timestamp;pressure;altitude;pressure_sealevel;temperature;humidity
55656;BME280;41530;52.382;5.270;2023-08-17T00:01:31;102385.25;;;23.60;47.87
55656;BME280;41530;52.382;5.270;2023-08-17T00:03:58;102383.69;;;23.57;47.50
55656;BME280;41530;52.382;5.270;2023-08-17T00:06:24;102381.19;;;23.56;47.86
55656;BME280;41530;52.382;5.270;2023-08-17T00:08:52;102382.34;;;23.53;47.90
55656;BME280;41530;52.382;5.270;2023-08-17T00:11:18;102386.19;;;23.51;47.92
55656;BME280;41530;52.382;5.270;2023-08-17T00:13:45;102381.06;;;23.48;47.88
55656;BME280;41530;52.382;5.270;2023-08-17T00:16:11;102381.91;;;23.48;47.90
55656;BME280;41530;52.382;5.270;2023-08-17T00:18:38;102382.06;;;23.46;47.72
55656;BME280;41530;52.382;5.270;2023-08-17T00:21:05;102386.59;;;23.46;47.80
55656;BME280;41530;52.382;5.270;2023-08-17T00:28:24;102387.06;;;23.41;47.85
55656;BME280;41530;52.382;5.270;2023-08-17T00:30:50;102385.53;;;23.39;47.94
55656;BME280;41530;52.382;5.270;2023-08-17T00:33:17;102385.69;;;23.37;47.99
55656;BME280;41530;52.382;5.270;2023-08-17T00:35:44;102388.66;;;23.34;47.83
55656;BME280;41530;52.382;5.270;2023-08-17T00:38:12;102396.88;;;23.33;48.15
55656;BME280;41530;52.382;5.270;2023-08-17T00:40:39;102390.81;;;23.31;47.76
55656;BME280;41530;52.382;5.270;2023-08-17T00:43:05;102385.63;;;23.29;48.11
55656;BME280;41530;52.382;5.270;2023-08-17T00:45:32;102379.41;;;23.29;48.26
55656;BME280;41530;52.382;5.270;2023-08-17T00:47:58;102386.91;;;23.25;47.83
55656;BME280;41530;52.382;5.270;2023-08-17T00:50:28;102388.91;;;23.23;48.02
55656;BME280;41530;52.382;5.270;2023-08-17T00:52:55;102386.38;;;23.22;48.12
55656;BME280;41530;52.382;5.270;2023-08-17T00:55:22;102384.66;;;23.21;48.11
55656;BME280;41530;52.382;5.270;2023-08-17T00:57:48;102378.47;;;23.20;48.25
55656;BME280;41530;52.382;5.270;2023-08-17T01:00:15;102374.09;;;23.19;48.41
55656;BME280;41530;52.382;5.270;2023-08-17T01:02:45;102386.00;;;23.17;48.00
55656;BME280;41530;52.382;5.270;2023-08-17T01:05:12;102381.63;;;23.16;48.27
55656;BME280;41530;52.382;5.270;2023-08-17T01:07:39;102377.25;;;23.15;48.36
55656;BME280;41530;52.382;5.270;2023-08-17T01:10:06;102372.03;;;23.13;48.06
55656;BME280;41530;52.382;5.270;2023-08-17T01:12:37;102374.00;;;23.11;48.11
55656;BME280;41530;52.382;5.270;2023-08-17T01:17:43;102370.63;;;23.09;47.94
55656;BME280;41530;52.382;5.270;2023-08-17T01:20:10;102364.56;;;23.07;48.44
55656;BME280;41530;52.382;5.270;2023-08-17T01:22:40;102368.94;;;23.08;48.24
55656;BME280;41530;52.382;5.270;2023-08-17T01:25:07;102364.56;;;23.07;48.28
55656;BME280;41530;52.382;5.270;2023-08-17T01:27:38;102365.56;;;23.06;48.51
55656;BME280;41530;52.382;5.270;2023-08-17T01:30:05;102370.91;;;23.06;48.51
55656;BME280;41530;52.382;5.270;2023-08-17T01:35:02;102357.81;;;23.03;48.48
55656;BME280;41530;52.382;5.270;2023-08-17T01:37:32;102360.66;;;23.01;48.11
55656;BME280;41530;52.382;5.270;2023-08-17T01:40:00;102356.13;;;23.02;48.29
55656;BME280;41530;52.382;5.270;2023-08-17T01:42:26;102358.97;;;23.00;48.41
55656;BME280;41530;52.382;5.270;2023-08-17T01:44:53;102360.81;;;23.00;48.35
55656;BME280;41530;52.382;5.270;2023-08-17T01:47:21;102352.06;;;22.98;48.35
55656;BME280;41530;52.382;5.270;2023-08-17T01:49:48;102357.56;;;22.96;48.46
55656;BME280;41530;52.382;5.270;2023-08-17T01:52:15;102360.41;;;22.95;48.29
55656;BME280;41530;52.382;5.270;2023-08-17T01:54:41;102364.94;;;22.94;48.48
55656;BME280;41530;52.382;5.270;2023-08-17T01:57:08;102362.38;;;22.93;48.63
55656;BME280;41530;52.382;5.270;2023-08-17T01:59:34;102372.28;;;22.92;48.38
55656;BME280;41530;52.382;5.270;2023-08-17T02:02:01;102362.53;;;22.91;48.38
55656;BME280;41530;52.382;5.270;2023-08-17T02:04:27;102360.88;;;22.90;48.65
55656;BME280;41530;52.382;5.270;2023-08-17T02:06:54;102366.25;;;22.90;48.54
55656;BME280;41530;52.382;5.270;2023-08-17T02:09:20;102365.41;;;22.90;48.63
55656;BME280;41530;52.382;5.270;2023-08-17T02:11:48;102364.69;;;22.88;48.54
55656;BME280;41530;52.382;5.270;2023-08-17T02:14:15;102368.38;;;22.87;48.57
55656;BME280;41530;52.382;5.270;2023-08-17T02:16:41;102377.41;;;22.86;48.34
55656;BME280;41530;52.382;5.270;2023-08-17T02:19:08;102368.81;;;22.82;48.49
55656;BME280;41530;52.382;5.270;2023-08-17T02:21:34;102367.13;;;22.81;48.68
55656;BME280;41530;52.382;5.270;2023-08-17T02:24:01;102364.59;;;22.80;48.78
55656;BME280;41530;52.382;5.270;2023-08-17T02:26:29;102361.91;;;22.80;48.92
55656;BME280;41530;52.382;5.270;2023-08-17T02:28:55;102354.00;;;22.78;48.85
55656;BME280;41530;52.382;5.270;2023-08-17T02:31:21;102352.44;;;22.75;48.94
55656;BME280;41530;52.382;5.270;2023-08-17T02:33:48;102362.22;;;22.77;48.73
55656;BME280;41530;52.382;5.270;2023-08-17T02:36:15;102356.13;;;22.74;48.78
55656;BME280;41530;52.382;5.270;2023-08-17T02:38:41;102353.44;;;22.74;48.70
55656;BME280;41530;52.382;5.270;2023-08-17T02:41:08;102356.28;;;22.73;48.72
55656;BME280;41530;52.382;5.270;2023-08-17T02:43:34;102348.38;;;22.71;49.00
55656;BME280;41530;52.382;5.270;2023-08-17T02:46:01;102344.00;;;22.70;48.92
55656;BME280;41530;52.382;5.270;2023-08-17T02:48:28;102341.47;;;22.69;48.91
55656;BME280;41530;52.382;5.270;2023-08-17T02:50:58;102339.75;;;22.68;49.18
55656;BME280;41530;52.382;5.270;2023-08-17T02:53:24;102340.91;;;22.65;48.73
55656;BME280;41530;52.382;5.270;2023-08-17T02:55:51;102334.53;;;22.66;49.23
55656;BME280;41530;52.382;5.270;2023-08-17T02:58:17;102333.69;;;22.66;49.07
55656;BME280;41530;52.382;5.270;2023-08-17T03:00:44;102336.53;;;22.64;49.02
55656;BME280;41530;52.382;5.270;2023-08-17T03:03:10;102343.72;;;22.64;48.87
55656;BME280;41530;52.382;5.270;2023-08-17T03:05:37;102346.59;;;22.62;49.30
55656;BME280;41530;52.382;5.270;2023-08-17T03:08:03;102345.88;;;22.60;48.63
55656;BME280;41530;52.382;5.270;2023-08-17T03:10:30;102351.41;;;22.59;48.97
55656;BME280;41530;52.382;5.270;2023-08-17T03:12:57;102343.34;;;22.59;49.26
55656;BME280;41530;52.382;5.270;2023-08-17T03:15:23;102339.13;;;22.56;48.60
55656;BME280;41530;52.382;5.270;2023-08-17T03:17:50;102341.94;;;22.55;48.99
55656;BME280;41530;52.382;5.270;2023-08-17T03:20:16;102344.09;;;22.51;48.74
55656;BME280;41530;52.382;5.270;2023-08-17T03:22:43;102340.56;;;22.51;49.08
55656;BME280;41530;52.382;5.270;2023-08-17T03:25:09;102337.19;;;22.49;49.24
55656;BME280;41530;52.382;5.270;2023-08-17T03:27:36;102331.97;;;22.47;49.09
55656;BME280;41530;52.382;5.270;2023-08-17T03:30:03;102337.19;;;22.49;49.15
55656;BME280;41530;52.382;5.270;2023-08-17T03:32:30;102335.50;;;22.48;49.32
55656;BME280;41530;52.382;5.270;2023-08-17T03:34:56;102341.56;;;22.50;49.21
55656;BME280;41530;52.382;5.270;2023-08-17T03:37:23;102335.38;;;22.49;49.39
55656;BME280;41530;52.382;5.270;2023-08-17T03:39:50;102345.91;;;22.51;49.10
55656;BME280;41530;52.382;5.270;2023-08-17T03:42:16;102343.41;;;22.49;49.41
55656;BME280;41530;52.382;5.270;2023-08-17T03:44:43;102339.56;;;22.52;49.19
55656;BME280;41530;52.382;5.270;2023-08-17T03:47:09;102348.59;;;22.51;49.26
55656;BME280;41530;52.382;5.270;2023-08-17T03:49:36;102346.09;;;22.49;49.42
55656;BME280;41530;52.382;5.270;2023-08-17T03:52:02;102344.53;;;22.47;49.09
55656;BME280;41530;52.382;5.270;2023-08-17T03:54:29;102343.69;;;22.46;49.51
55656;BME280;41530;52.382;5.270;2023-08-17T03:56:55;102336.78;;;22.44;49.15
55656;BME280;41530;52.382;5.270;2023-08-17T03:59:22;102342.84;;;22.46;49.57
55656;BME280;41530;52.382;5.270;2023-08-17T04:01:50;102341.31;;;22.43;49.40
55656;BME280;41530;52.382;5.270;2023-08-17T04:04:16;102345.97;;;22.41;49.34
55656;BME280;41530;52.382;5.270;2023-08-17T04:06:43;102349.50;;;22.42;49.46
55656;BME280;41530;52.382;5.270;2023-08-17T04:09:09;102338.91;;;22.40;49.13
55656;BME280;41530;52.382;5.270;2023-08-17T04:11:36;102347.81;;;22.40;49.23
55656;BME280;41530;52.382;5.270;2023-08-17T04:14:05;102344.28;;;22.40;49.14
55656;BME280;41530;52.382;5.270;2023-08-17T04:16:31;102342.72;;;22.37;49.37
55656;BME280;41530;52.382;5.270;2023-08-17T04:18:58;102348.94;;;22.38;49.16
55656;BME280;41530;52.382;5.270;2023-08-17T04:21:24;102343.75;;;22.36;49.45
55656;BME280;41530;52.382;5.270;2023-08-17T04:23:51;102339.22;;;22.37;49.41
55656;BME280;41530;52.382;5.270;2023-08-17T04:26:17;102342.06;;;22.35;49.26
55656;BME280;41530;52.382;5.270;2023-08-17T04:28:44;102344.03;;;22.33;49.19
55656;BME280;41530;52.382;5.270;2023-08-17T04:31:10;102342.19;;;22.34;49.41
55656;BME280;41530;52.382;5.270;2023-08-17T04:33:37;102340.38;;;22.34;49.33
55656;BME280;41530;52.382;5.270;2023-08-17T04:36:04;102338.69;;;22.33;49.20
55656;BME280;41530;52.382;5.270;2023-08-17T04:38:30;102336.84;;;22.34;49.23
55656;BME280;41530;52.382;5.270;2023-08-17T04:40:56;102334.31;;;22.32;49.39
55656;BME280;41530;52.382;5.270;2023-08-17T04:43:23;102335.28;;;22.31;49.38
55656;BME280;41530;52.382;5.270;2023-08-17T04:45:49;102338.13;;;22.30;49.43
55656;BME280;41530;52.382;5.270;2023-08-17T04:48:16;102330.22;;;22.28;49.32
55656;BME280;41530;52.382;5.270;2023-08-17T04:50:42;102331.19;;;22.27;49.79
55656;BME280;41530;52.382;5.270;2023-08-17T04:53:09;102335.44;;;22.30;49.66
55656;BME280;41530;52.382;5.270;2023-08-17T04:55:35;102332.91;;;22.28;49.61
55656;BME280;41530;52.382;5.270;2023-08-17T04:58:02;102333.59;;;22.30;49.80
55656;BME280;41530;52.382;5.270;2023-08-17T05:00:28;102328.09;;;22.32;49.87
55656;BME280;41530;52.382;5.270;2023-08-17T05:02:55;102327.94;;;22.33;49.65
55656;BME280;41530;52.382;5.270;2023-08-17T05:05:22;102331.31;;;22.35;49.65
55656;BME280;41530;52.382;5.270;2023-08-17T05:07:49;102328.50;;;22.37;49.71
55656;BME280;41530;52.382;5.270;2023-08-17T05:10:15;102325.81;;;22.37;49.91
55656;BME280;41530;52.382;5.270;2023-08-17T05:12:42;102327.34;;;22.39;49.55
55656;BME280;41530;52.382;5.270;2023-08-17T05:15:08;102325.66;;;22.38;49.50
55656;BME280;41530;52.382;5.270;2023-08-17T05:17:36;102331.00;;;22.38;49.65
55656;BME280;41530;52.382;5.270;2023-08-17T05:20:03;102331.00;;;22.38;49.81
55656;BME280;41530;52.382;5.270;2023-08-17T05:22:30;102326.50;;;22.39;49.75
55656;BME280;41530;52.382;5.270;2023-08-17T05:24:57;102323.81;;;22.39;49.74
55656;BME280;41530;52.382;5.270;2023-08-17T05:27:23;102326.22;;;22.42;50.23
55656;BME280;41530;52.382;5.270;2023-08-17T05:29:50;102335.78;;;22.45;50.37
55656;BME280;41530;52.382;5.270;2023-08-17T05:32:17;102326.63;;;22.47;50.38
55656;BME280;41530;52.382;5.270;2023-08-17T05:34:43;102332.81;;;22.48;50.22
55656;BME280;41530;52.382;5.270;2023-08-17T05:37:10;102334.66;;;22.47;49.46
55656;BME280;41530;52.382;5.270;2023-08-17T05:39:36;102336.50;;;22.47;50.47
55656;BME280;41530;52.382;5.270;2023-08-17T05:42:03;102326.91;;;22.44;50.23
55656;BME280;41530;52.382;5.270;2023-08-17T05:44:29;102334.94;;;22.44;50.20
55656;BME280;41530;52.382;5.270;2023-08-17T05:46:56;102327.91;;;22.43;50.28
55656;BME280;41530;52.382;5.270;2023-08-17T05:49:22;102328.88;;;22.42;50.16
55656;BME280;41530;52.382;5.270;2023-08-17T05:51:49;102328.88;;;22.42;50.26
55656;BME280;41530;52.382;5.270;2023-08-17T05:54:15;102338.63;;;22.43;50.14
55656;BME280;41530;52.382;5.270;2023-08-17T05:56:42;102337.06;;;22.40;50.12
55656;BME280;41530;52.382;5.270;2023-08-17T05:59:13;102338.06;;;22.39;50.41
55656;BME280;41530;52.382;5.270;2023-08-17T06:01:40;102338.06;;;22.39;50.42
55656;BME280;41530;52.382;5.270;2023-08-17T06:04:06;102343.44;;;22.39;49.95
55656;BME280;41530;52.382;5.270;2023-08-17T06:06:33;102342.59;;;22.39;50.41
55656;BME280;41530;52.382;5.270;2023-08-17T06:09:00;102339.75;;;22.40;49.94
55656;BME280;41530;52.382;5.270;2023-08-17T06:11:26;102332.56;;;22.41;50.55
55656;BME280;41530;52.382;5.270;2023-08-17T06:13:53;102336.78;;;22.44;50.46
55656;BME280;41530;52.382;5.270;2023-08-17T06:16:19;102334.53;;;22.49;50.44
55656;BME280;41530;52.382;5.270;2023-08-17T06:18:46;102336.72;;;22.53;50.36
55656;BME280;41530;52.382;5.270;2023-08-17T06:21:12;102324.03;;;22.55;50.44
55656;BME280;41530;52.382;5.270;2023-08-17T06:23:39;102322.75;;;22.59;50.50
55656;BME280;41530;52.382;5.270;2023-08-17T06:26:05;102325.78;;;22.64;50.52
55656;BME280;41530;52.382;5.270;2023-08-17T06:28:32;102334.25;;;22.69;50.32
55656;BME280;41530;52.382;5.270;2023-08-17T06:30:58;102331.28;;;22.72;50.63
55656;BME280;41530;52.382;5.270;2023-08-17T06:33:24;102333.66;;;22.75;50.34
55656;BME280;41530;52.382;5.270;2023-08-17T06:35:51;102328.72;;;22.81;50.45
55656;BME280;41530;52.382;5.270;2023-08-17T06:38:18;102336.47;;;22.84;50.51
55656;BME280;41530;52.382;5.270;2023-08-17T06:40:45;102339.56;;;22.89;50.36
55656;BME280;41530;52.382;5.270;2023-08-17T06:43:11;102331.88;;;22.94;50.18
55656;BME280;41530;52.382;5.270;2023-08-17T06:45:38;102347.69;;;22.97;50.16
55656;BME280;41530;52.382;5.270;2023-08-17T06:48:04;102347.38;;;23.00;50.09
55656;BME280;41530;52.382;5.270;2023-08-17T06:50:31;102347.09;;;23.03;50.11
55656;BME280;41530;52.382;5.270;2023-08-17T06:52:58;102349.44;;;23.06;50.26
55656;BME280;41530;52.382;5.270;2023-08-17T06:55:24;102343.78;;;23.09;50.04
55656;BME280;41530;52.382;5.270;2023-08-17T06:57:51;102351.53;;;23.12;50.12
55656;BME280;41530;52.382;5.270;2023-08-17T07:00:18;102339.66;;;23.15;49.89
55656;BME280;41530;52.382;5.270;2023-08-17T07:02:47;102342.00;;;23.18;49.88
55656;BME280;41530;52.382;5.270;2023-08-17T07:05:20;102348.91;;;23.20;49.96
55656;BME280;41530;52.382;5.270;2023-08-17T07:07:46;102352.31;;;23.22;49.80
55656;BME280;41530;52.382;5.270;2023-08-17T07:10:13;102351.16;;;23.25;49.69
55656;BME280;41530;52.382;5.270;2023-08-17T07:12:40;102344.66;;;23.27;49.62
55656;BME280;41530;52.382;5.270;2023-08-17T07:15:07;102343.50;;;23.30;49.70
55656;BME280;41530;52.382;5.270;2023-08-17T07:17:33;102358.44;;;23.32;49.62
55656;BME280;41530;52.382;5.270;2023-08-17T07:20:00;102351.91;;;23.35;49.46
55656;BME280;41530;52.382;5.270;2023-08-17T07:22:30;102356.16;;;23.37;49.74
55656;BME280;41530;52.382;5.270;2023-08-17T07:24:56;102356.84;;;23.39;49.61
55656;BME280;41530;52.382;5.270;2023-08-17T07:27:23;102362.06;;;23.41;49.63
55656;BME280;41530;52.382;5.270;2023-08-17T07:29:50;102363.59;;;23.43;49.62
55656;BME280;41530;52.382;5.270;2023-08-17T07:32:16;102360.59;;;23.46;49.70
55656;BME280;41530;52.382;5.270;2023-08-17T07:34:43;102352.38;;;23.48;49.46
55656;BME280;41530;52.382;5.270;2023-08-17T07:37:09;102363.81;;;23.50;49.58
55656;BME280;41530;52.382;5.270;2023-08-17T07:39:40;102349.41;;;23.51;49.47
55656;BME280;41530;52.382;5.270;2023-08-17T07:42:06;102356.31;;;23.54;49.53
55656;BME280;41530;52.382;5.270;2023-08-17T07:44:33;102344.59;;;23.55;49.47
55656;BME280;41530;52.382;5.270;2023-08-17T07:47:01;102355.19;;;23.56;49.33
55656;BME280;41530;52.382;5.270;2023-08-17T07:49:28;102361.22;;;23.58;49.34
55656;BME280;41530;52.382;5.270;2023-08-17T07:51:58;102361.91;;;23.60;49.33
55656;BME280;41530;52.382;5.270;2023-08-17T07:54:24;102357.22;;;23.62;49.36
55656;BME280;41530;52.382;5.270;2023-08-17T07:56:51;102355.94;;;23.66;49.30
55656;BME280;41530;52.382;5.270;2023-08-17T07:59:17;102359.97;;;23.70;49.30
55656;BME280;41530;52.382;5.270;2023-08-17T08:01:44;102356.13;;;23.73;49.21
55656;BME280;41530;52.382;5.270;2023-08-17T08:04:10;102366.44;;;23.77;49.12
55656;BME280;41530;52.382;5.270;2023-08-17T08:06:37;102360.75;;;23.80;49.00
55656;BME280;41530;52.382;5.270;2023-08-17T08:09:03;102357.72;;;23.84;49.12
55656;BME280;41530;52.382;5.270;2023-08-17T08:11:30;102367.16;;;23.88;49.06
55656;BME280;41530;52.382;5.270;2023-08-17T08:13:57;102361.47;;;23.91;48.92
55656;BME280;41530;52.382;5.270;2023-08-17T08:16:23;102366.69;;;23.92;48.83
55656;BME280;41530;52.382;5.270;2023-08-17T08:18:50;102362.72;;;23.96;48.87
55656;BME280;41530;52.382;5.270;2023-08-17T08:21:16;102363.06;;;24.01;48.86
55656;BME280;41530;52.382;5.270;2023-08-17T08:23:43;102359.22;;;24.04;48.91
55656;BME280;41530;52.382;5.270;2023-08-17T08:26:09;102350.00;;;24.06;48.69
55656;BME280;41530;52.382;5.270;2023-08-17T08:28:36;102343.13;;;24.12;48.63
55656;BME280;41530;52.382;5.270;2023-08-17T08:31:02;102351.72;;;24.15;48.56
55656;BME280;41530;52.382;5.270;2023-08-17T08:33:32;102346.88;;;24.19;48.72
55656;BME280;41530;52.382;5.270;2023-08-17T08:35:58;102350.25;;;24.21;48.57
55656;BME280;41530;52.382;5.270;2023-08-17T08:38:25;102363.41;;;24.24;48.46
55656;BME280;41530;52.382;5.270;2023-08-17T08:40:51;102349.78;;;24.26;48.55
55656;BME280;41530;52.382;5.270;2023-08-17T08:43:18;102360.22;;;24.29;48.44
55656;BME280;41530;52.382;5.270;2023-08-17T08:45:44;102352.84;;;24.31;48.41
55656;BME280;41530;52.382;5.270;2023-08-17T08:48:11;102338.09;;;24.35;48.24
55656;BME280;41530;52.382;5.270;2023-08-17T08:50:40;102337.59;;;24.39;48.24
55656;BME280;41530;52.382;5.270;2023-08-17T08:53:15;102337.13;;;24.44;48.19
55656;BME280;41530;52.382;5.270;2023-08-17T08:55:52;102336.66;;;24.48;48.27
55656;BME280;41530;52.382;5.270;2023-08-17T08:58:20;102329.91;;;24.52;48.12
55656;BME280;41530;52.382;5.270;2023-08-17T09:00:47;102326.91;;;24.56;48.04
55656;BME280;41530;52.382;5.270;2023-08-17T09:03:15;102332.66;;;24.61;47.84
55656;BME280;41530;52.382;5.270;2023-08-17T09:05:47;102326.09;;;24.63;47.76
55656;BME280;41530;52.382;5.270;2023-08-17T09:08:20;102315.69;;;24.68;47.94
55656;BME280;41530;52.382;5.270;2023-08-17T09:10:47;102310.81;;;24.72;47.79
55656;BME280;41530;52.382;5.270;2023-08-17T09:13:14;102314.69;;;24.77;47.69
55656;BME280;41530;52.382;5.270;2023-08-17T09:15:40;102321.44;;;24.81;47.55
55656;BME280;41530;52.382;5.270;2023-08-17T09:18:07;102319.09;;;24.86;47.48
55656;BME280;41530;52.382;5.270;2023-08-17T09:20:43;102316.09;;;24.90;47.55
55656;BME280;41530;52.382;5.270;2023-08-17T09:23:17;102322.84;;;24.94;47.36
55656;BME280;41530;52.382;5.270;2023-08-17T09:25:46;102316.13;;;24.98;47.25
55656;BME280;41530;52.382;5.270;2023-08-17T09:28:16;102310.25;;;25.02;47.23
55656;BME280;41530;52.382;5.270;2023-08-17T09:30:53;102320.50;;;25.07;47.23
55656;BME280;41530;52.382;5.270;2023-08-17T09:33:21;102312.94;;;25.10;47.14
55656;BME280;41530;52.382;5.270;2023-08-17T09:35:48;102304.53;;;25.13;47.09
55656;BME280;41530;52.382;5.270;2023-08-17T09:38:15;102296.94;;;25.17;47.01
55656;BME280;41530;52.382;5.270;2023-08-17T09:40:42;102304.69;;;25.20;46.99
55656;BME280;41530;52.382;5.270;2023-08-17T09:43:09;102292.75;;;25.23;47.11
55656;BME280;41530;52.382;5.270;2023-08-17T09:45:39;102292.25;;;25.27;46.91
55656;BME280;41530;52.382;5.270;2023-08-17T09:48:06;102297.13;;;25.32;47.07
55656;BME280;41530;52.382;5.270;2023-08-17T09:50:34;102287.88;;;25.34;47.07
55656;BME280;41530;52.382;5.270;2023-08-17T09:53:04;102286.69;;;25.37;46.95
55656;BME280;41530;52.382;5.270;2023-08-17T09:55:31;102281.81;;;25.40;46.83
55656;BME280;41530;52.382;5.270;2023-08-17T09:58:00;102285.19;;;25.42;46.79
55656;BME280;41530;52.382;5.270;2023-08-17T10:00:27;102283.13;;;25.44;46.71
55656;BME280;41530;52.382;5.270;2023-08-17T10:02:55;102278.44;;;25.46;46.75
55656;BME280;41530;52.382;5.270;2023-08-17T10:05:24;102281.78;;;25.48;46.88
55656;BME280;41530;52.382;5.270;2023-08-17T10:07:57;102273.72;;;25.48;46.89
55656;BME280;41530;52.382;5.270;2023-08-17T10:10:25;102275.22;;;25.51;46.53
55656;BME280;41530;52.382;5.270;2023-08-17T10:13:05;102271.53;;;25.52;46.58
55656;BME280;41530;52.382;5.270;2023-08-17T10:15:37;102278.28;;;25.56;46.73
55656;BME280;41530;52.382;5.270;2023-08-17T10:18:09;102268.81;;;25.60;46.68
55656;BME280;41530;52.382;5.270;2023-08-17T10:20:42;102263.13;;;25.63;46.54
55656;BME280;41530;52.382;5.270;2023-08-17T10:23:15;102270.34;;;25.63;46.47
55656;BME280;41530;52.382;5.270;2023-08-17T10:25:43;102270.34;;;25.63;46.57
55656;BME280;41530;52.382;5.270;2023-08-17T10:28:16;102275.59;;;25.64;46.61
55656;BME280;41530;52.382;5.270;2023-08-17T10:30:42;102266.47;;;25.65;46.62
55656;BME280;41530;52.382;5.270;2023-08-17T10:33:09;102266.47;;;25.65;46.65
55656;BME280;41530;52.382;5.270;2023-08-17T10:35:36;102271.88;;;25.65;46.35
55656;BME280;41530;52.382;5.270;2023-08-17T10:38:03;102269.00;;;25.67;46.53
55656;BME280;41530;52.382;5.270;2023-08-17T10:40:37;102269.84;;;25.67;46.67
55656;BME280;41530;52.382;5.270;2023-08-17T10:43:04;102265.13;;;25.69;46.83
55656;BME280;41530;52.382;5.270;2023-08-17T10:50:34;102264.94;;;25.71;46.57
55656;BME280;41530;52.382;5.270;2023-08-17T10:53:11;102264.09;;;25.70;46.88
55656;BME280;41530;52.382;5.270;2023-08-17T10:55:38;102266.78;;;25.70;46.69
55656;BME280;41530;52.382;5.270;2023-08-17T10:58:06;102257.06;;;25.69;46.62
55656;BME280;41530;52.382;5.270;2023-08-17T11:00:38;102262.25;;;25.71;46.71
55656;BME280;41530;52.382;5.270;2023-08-17T11:03:06;102266.78;;;25.70;46.69
55656;BME280;41530;52.382;5.270;2023-08-17T11:05:37;102259.56;;;25.71;46.91
55656;BME280;41530;52.382;5.270;2023-08-17T11:08:04;102267.63;;;25.71;46.67
55656;BME280;41530;52.382;5.270;2023-08-17T11:10:31;102269.31;;;25.72;46.54
55656;BME280;41530;52.382;5.270;2023-08-17T11:12:58;102262.06;;;25.72;46.82
55656;BME280;41530;52.382;5.270;2023-08-17T11:15:35;102254.84;;;25.73;46.92
55656;BME280;41530;52.382;5.270;2023-08-17T11:18:05;102257.53;;;25.73;46.83
55656;BME280;41530;52.382;5.270;2023-08-17T11:20:36;102253.81;;;25.74;46.79
55656;BME280;41530;52.382;5.270;2023-08-17T11:23:04;102261.06;;;25.73;46.87
55656;BME280;41530;52.382;5.270;2023-08-17T11:25:31;102257.38;;;25.74;46.72
55656;BME280;41530;52.382;5.270;2023-08-17T11:27:59;102258.03;;;25.76;46.81
55656;BME280;41530;52.382;5.270;2023-08-17T11:30:26;102258.88;;;25.77;46.87
55656;BME280;41530;52.382;5.270;2023-08-17T11:32:54;102258.88;;;25.77;46.88
55656;BME280;41530;52.382;5.270;2023-08-17T11:35:21;102252.63;;;25.76;46.92
55656;BME280;41530;52.382;5.270;2023-08-17T11:37:48;102255.34;;;25.76;47.08
55656;BME280;41530;52.382;5.270;2023-08-17T11:40:15;102257.88;;;25.78;46.76
55656;BME280;41530;52.382;5.270;2023-08-17T11:42:42;102262.41;;;25.77;46.95
55656;BME280;41530;52.382;5.270;2023-08-17T11:45:09;102260.72;;;25.76;46.71
55656;BME280;41530;52.382;5.270;2023-08-17T11:47:41;102264.09;;;25.78;46.82
55656;BME280;41530;52.382;5.270;2023-08-17T11:50:10;102262.41;;;25.77;46.97
55656;BME280;41530;52.382;5.270;2023-08-17T11:52:46;102263.25;;;25.78;47.01
55656;BME280;41530;52.382;5.270;2023-08-17T11:55:15;102262.41;;;25.77;46.70
55656;BME280;41530;52.382;5.270;2023-08-17T11:57:43;102262.25;;;25.79;46.79
55656;BME280;41530;52.382;5.270;2023-08-17T12:00:10;102257.88;;;25.78;47.12
55656;BME280;41530;52.382;5.270;2023-08-17T12:02:42;102256.84;;;25.79;46.87
55656;BME280;41530;52.382;5.270;2023-08-17T12:05:11;102258.53;;;25.80;46.74
55656;BME280;41530;52.382;5.270;2023-08-17T12:07:38;102250.44;;;25.80;46.85
55656;BME280;41530;52.382;5.270;2023-08-17T12:10:04;102252.13;;;25.81;46.75
55656;BME280;41530;52.382;5.270;2023-08-17T12:12:35;102244.88;;;25.81;46.92
55656;BME280;41530;52.382;5.270;2023-08-17T12:15:03;102255.66;;;25.81;47.05
55656;BME280;41530;52.382;5.270;2023-08-17T12:17:29;102255.50;;;25.83;47.00
55656;BME280;41530;52.382;5.270;2023-08-17T12:19:58;102249.28;;;25.82;46.83
55656;BME280;41530;52.382;5.270;2023-08-17T12:22:25;102233.94;;;25.83;47.16
55656;BME280;41530;52.382;5.270;2023-08-17T12:24:55;102239.13;;;25.84;47.13
55656;BME280;41530;52.382;5.270;2023-08-17T12:27:22;102233.72;;;25.84;46.86
55656;BME280;41530;52.382;5.270;2023-08-17T12:29:50;102235.59;;;25.84;46.90
55656;BME280;41530;52.382;5.270;2023-08-17T12:32:17;102233.56;;;25.86;46.93
55656;BME280;41530;52.382;5.270;2023-08-17T12:34:44;102224.63;;;25.85;47.02
55656;BME280;41530;52.382;5.270;2023-08-17T12:37:11;102229.84;;;25.87;47.11
55656;BME280;41530;52.382;5.270;2023-08-17T12:39:38;102235.25;;;25.87;47.13
55656;BME280;41530;52.382;5.270;2023-08-17T12:42:05;102229.84;;;25.87;46.87
55656;BME280;41530;52.382;5.270;2023-08-17T12:44:37;102234.25;;;25.88;47.02
55656;BME280;41530;52.382;5.270;2023-08-17T12:47:04;102239.63;;;25.88;46.96
55656;BME280;41530;52.382;5.270;2023-08-17T12:49:30;102235.09;;;25.88;46.85
55656;BME280;41530;52.382;5.270;2023-08-17T12:51:57;102240.47;;;25.88;46.93
55656;BME280;41530;52.382;5.270;2023-08-17T12:54:23;102230.53;;;25.89;46.62
55656;BME280;41530;52.382;5.270;2023-08-17T12:56:50;102237.59;;;25.90;47.01
55656;BME280;41530;52.382;5.270;2023-08-17T12:59:16;102237.59;;;25.90;46.91
55656;BME280;41530;52.382;5.270;2023-08-17T13:01:43;102237.59;;;25.90;46.97
55656;BME280;41530;52.382;5.270;2023-08-17T13:04:09;102229.50;;;25.90;46.96
55656;BME280;41530;52.382;5.270;2023-08-17T13:06:35;102235.75;;;25.90;46.74